Time;durP1;ratioP1;P1;durP2;ratioP2;P2;SDS_P1;SDS_P2;PMS_P1;PMS_P2;Temp;Humidity;BMP_temperature;BMP_pressure;BME280_temperature;BME280_humidity;BME280_pressure;Samples;Min_cycle;Max_cycle;Signal;HPM_P1;HPM_P2
2022/02/23 00:01:10;;;;;;;2.50;0.90;;;7.50;1.00;;;;;;5074658;28;20175;-73
2022/02/23 00:03:35;;;;;;;1.50;0.80;;;7.40;1.00;;;;;;5075167;28;20429;-74
2022/02/23 00:06:01;;;;;;;3.20;0.93;;;;;;;;;;5079369;28;20191;-74
2022/02/23 00:08:27;;;;;;;3.90;0.80;;;7.40;1.00;;;;;;5083714;28;20190;-74
2022/02/23 00:10:53;;;;;;;2.10;1.00;;;7.40;1.00;;;;;;5074361;28;20421;-74
2022/02/23 00:13:18;;;;;;;5.77;1.30;;;7.40;1.00;;;;;;5077576;28;20179;-74
2022/02/23 00:15:44;;;;;;;5.60;0.77;;;;;;;;;;5075917;28;20393;-74
2022/02/23 00:18:16;;;;;;;7.50;1.20;;;7.30;1.00;;;;;;5074247;28;20171;-74
2022/02/23 00:20:43;;;;;;;5.77;1.33;;;7.30;1.00;;;;;;5074266;28;20417;-74
2022/02/23 00:23:08;;;;;;;3.30;0.90;;;7.30;1.00;;;;;;5075550;28;20904;-74
2022/02/23 00:25:35;;;;;;;7.23;1.03;;;7.30;1.00;;;;;;5077112;28;20437;-74
2022/02/23 00:28:00;;;;;;;12.47;1.90;;;7.20;1.00;;;;;;5087462;28;20232;-74
2022/02/23 00:30:26;;;;;;;4.57;1.00;;;7.20;1.00;;;;;;5074332;28;20986;-74
2022/02/23 00:32:52;;;;;;;5.13;0.90;;;7.20;1.00;;;;;;5078203;28;20170;-74
2022/02/23 00:35:17;;;;;;;8.83;1.47;;;7.20;1.00;;;;;;5077472;28;20216;-74
2022/02/23 00:37:43;;;;;;;5.90;1.40;;;7.10;1.00;;;;;;5074552;28;20190;-74
2022/02/23 00:40:09;;;;;;;5.23;1.60;;;7.10;1.00;;;;;;5074316;28;20173;-74
2022/02/23 00:42:35;;;;;;;4.20;1.07;;;7.10;1.00;;;;;;5083929;28;20175;-74
2022/02/23 00:45:01;;;;;;;3.03;1.17;;;;;;;;;;5089444;28;20432;-73
2022/02/23 00:47:26;;;;;;;8.00;1.50;;;7.00;1.00;;;;;;5078597;28;20675;-73
2022/02/23 00:49:52;;;;;;;9.50;1.20;;;7.00;1.00;;;;;;5089528;28;20428;-73
2022/02/23 00:52:18;;;;;;;7.60;1.30;;;7.00;1.00;;;;;;5079112;28;20178;-73
2022/02/23 00:54:43;;;;;;;2.97;1.20;;;6.90;1.00;;;;;;5080812;28;20297;-73
2022/02/23 00:57:09;;;;;;;5.53;1.20;;;;;;;;;;5087673;28;20183;-73
2022/02/23 00:59:35;;;;;;;7.60;1.20;;;6.90;1.00;;;;;;5082517;28;20175;-73
2022/02/23 01:02:01;;;;;;;8.70;1.00;;;6.80;1.00;;;;;;5074361;28;20425;-74
2022/02/23 01:04:27;;;;;;;2.67;1.23;;;;;;;;;;5086117;28;20429;-74
2022/02/23 01:06:53;;;;;;;10.00;1.50;;;;;;;;;;5073248;28;20186;-73
2022/02/23 01:09:19;;;;;;;7.20;1.23;;;;;;;;;;5082090;28;20919;-73
2022/02/23 01:11:45;;;;;;;3.83;1.00;;;6.70;1.00;;;;;;5073767;28;20425;-73
2022/02/23 01:14:11;;;;;;;3.27;0.90;;;6.70;1.00;;;;;;5080390;28;20461;-73
2022/02/23 01:16:37;;;;;;;7.90;2.17;;;6.70;1.00;;;;;;5073413;28;20202;-74
2022/02/23 01:19:05;;;;;;;20.93;1.83;;;6.60;1.00;;;;;;5077865;28;20421;-74
2022/02/23 01:21:31;;;;;;;7.17;1.17;;;6.60;1.00;;;;;;5073218;28;20770;-74
2022/02/23 01:23:56;;;;;;;1.80;0.80;;;6.60;1.00;;;;;;5073187;28;20472;-74
2022/02/23 01:26:22;;;;;;;12.00;1.83;;;8.80;1.00;;;;;;5077006;28;20175;-74
2022/02/23 01:28:48;;;;;;;7.30;1.60;;;6.60;1.00;;;;;;5088823;28;20194;-74
2022/02/23 01:31:14;;;;;;;6.13;1.13;;;6.50;1.00;;;;;;5074216;28;20579;-73
2022/02/23 01:33:39;;;;;;;6.10;1.20;;;6.60;1.00;;;;;;5072987;28;20456;-73
2022/02/23 01:36:05;;;;;;;4.63;1.00;;;6.50;1.00;;;;;;5074562;28;20225;-74
2022/02/23 01:38:31;;;;;;;10.07;1.13;;;6.50;1.00;;;;;;5077223;28;20601;-74
2022/02/23 01:40:57;;;;;;;8.50;1.70;;;;;;;;;;5075642;28;20807;-74
2022/02/23 01:43:23;;;;;;;8.20;1.70;;;6.40;1.00;;;;;;5080052;28;20233;-74
2022/02/23 01:45:49;;;;;;;11.17;1.30;;;6.40;1.00;;;;;;5081009;28;20448;-73
2022/02/23 01:48:15;;;;;;;4.47;1.00;;;6.40;1.00;;;;;;5074250;28;20438;-73
2022/02/23 01:50:43;;;;;;;2.87;1.10;;;6.20;1.00;;;;;;5074973;28;20189;-73
2022/02/23 01:53:09;;;;;;;5.07;1.23;;;6.20;1.00;;;;;;5083356;28;20182;-73
2022/02/23 01:55:35;;;;;;;8.73;1.40;;;6.10;1.00;;;;;;5079942;28;20482;-73
2022/02/23 01:58:06;;;;;;;9.20;1.60;;;6.00;1.00;;;;;;5086098;28;20178;-73
2022/02/23 02:00:33;;;;;;;10.60;1.37;;;6.00;1.00;;;;;;5077292;28;20463;-74
2022/02/23 02:02:58;;;;;;;4.77;0.93;;;6.00;1.00;;;;;;5077650;28;20841;-74
2022/02/23 02:05:24;;;;;;;11.83;1.37;;;5.90;1.00;;;;;;5076461;28;20453;-74
2022/02/23 02:07:50;;;;;;;6.47;1.10;;;;;;;;;;5076820;28;20178;-74
2022/02/23 02:10:16;;;;;;;2.57;1.33;;;;;;;;;;5076611;28;20258;-74
2022/02/23 02:12:42;;;;;;;3.97;1.07;;;5.80;1.00;;;;;;5077525;28;20473;-74
2022/02/23 02:15:08;;;;;;;4.90;1.27;;;6.20;1.00;;;;;;5078577;28;20456;-74
2022/02/23 02:17:36;;;;;;;14.67;1.47;;;5.60;1.00;;;;;;5087450;28;20182;-74
2022/02/23 02:20:03;;;;;;;9.43;1.57;;;5.40;1.00;;;;;;5078126;28;20405;-74
2022/02/23 02:22:29;;;;;;;4.77;1.20;;;5.30;1.00;;;;;;5081503;28;20423;-74
2022/02/23 02:24:56;;;;;;;5.43;1.13;;;5.30;1.00;;;;;;5077210;28;20436;-74
2022/02/23 02:27:22;;;;;;;3.80;1.73;;;5.20;1.00;;;;;;5092732;28;20424;-74
2022/02/23 02:29:48;;;;;;;16.90;2.07;;;5.20;1.00;;;;;;5096525;28;20448;-74
2022/02/23 02:32:17;;;;;;;2.50;1.00;;;5.20;1.00;;;;;;5094936;28;20872;-77
2022/02/23 02:34:43;;;;;;;4.20;1.00;;;5.10;1.00;;;;;;5076378;28;20199;-77
2022/02/23 02:37:10;;;;;;;12.37;1.70;;;5.10;1.00;;;;;;5085493;28;20412;-77
2022/02/23 02:39:36;;;;;;;7.50;1.30;;;5.00;1.00;;;;;;5076397;28;20445;-77
2022/02/23 02:42:02;;;;;;;10.53;1.27;;;5.00;1.00;;;;;;5087687;28;20455;-77
2022/02/23 02:44:27;;;;;;;4.77;1.20;;;5.00;1.00;;;;;;5076125;28;20672;-77
2022/02/23 02:46:54;;;;;;;7.50;1.63;;;;;;;;;;5076901;28;20457;-76
2022/02/23 02:49:20;;;;;;;5.03;1.70;;;4.90;1.00;;;;;;5075847;28;20189;-76
2022/02/23 02:51:47;;;;;;;12.40;1.37;;;4.90;1.00;;;;;;5075915;28;20432;-76
2022/02/23 02:54:13;;;;;;;7.43;1.87;;;;;;;;;;5086523;28;21017;-76
2022/02/23 02:56:39;;;;;;;13.23;1.50;;;4.90;1.00;;;;;;5082083;28;20420;-76
2022/02/23 02:59:06;;;;;;;8.73;1.50;;;4.90;1.00;;;;;;5075321;28;20769;-76
2022/02/23 03:01:33;;;;;;;6.03;1.80;;;4.90;1.00;;;;;;5079930;28;20485;-76
2022/02/23 03:03:58;;;;;;;19.47;1.60;;;4.90;1.00;;;;;;5075562;28;20424;-76
2022/02/23 03:06:24;;;;;;;8.00;1.53;;;4.90;1.00;;;;;;5078287;28;20519;-76
2022/02/23 03:08:52;;;;;;;7.13;2.47;;;7.00;1.00;;;;;;5086543;28;20178;-76
2022/02/23 03:11:18;;;;;;;8.93;1.80;;;5.00;1.00;;;;;;5075427;28;20923;-76
2022/02/23 03:13:49;;;;;;;28.93;2.13;;;5.00;1.00;;;;;;5081809;28;20452;-76
2022/02/23 03:16:15;;;;;;;4.97;1.73;;;5.00;1.00;;;;;;5075610;28;20938;-76
2022/02/23 03:18:41;;;;;;;4.40;1.83;;;5.10;1.00;;;;;;5083014;28;20425;-77
2022/02/23 03:21:07;;;;;;;5.03;1.37;;;5.10;1.00;;;;;;5075422;28;20425;-77
2022/02/23 03:23:34;;;;;;;9.73;1.93;;;5.00;1.00;;;;;;5082391;28;20482;-77
2022/02/23 03:26:00;;;;;;;19.37;2.50;;;5.00;1.00;;;;;;5081316;28;20451;-77
2022/02/23 03:28:26;;;;;;;2.87;1.17;;;5.00;1.00;;;;;;5085326;28;20448;-77
2022/02/23 03:30:51;;;;;;;9.97;1.80;;;5.00;1.00;;;;;;5095735;28;20182;-76
2022/02/23 03:33:18;;;;;;;5.07;1.80;;;5.00;1.00;;;;;;5087579;28;20825;-76
2022/02/23 03:35:48;;;;;;;4.70;1.67;;;5.00;1.00;;;;;;5077988;28;20178;-76
2022/02/23 03:38:14;;;;;;;10.27;1.80;;;4.90;1.00;;;;;;5079173;28;20513;-76
2022/02/23 03:40:43;;;;;;;5.00;1.93;;;;;;;;;;5075654;28;20513;-76
2022/02/23 03:43:09;;;;;;;8.40;1.63;;;4.90;1.00;;;;;;5087010;28;20496;-76
2022/02/23 03:45:35;;;;;;;13.60;1.80;;;;;;;;;;5078817;28;20429;-76
2022/02/23 03:48:01;;;;;;;5.73;1.83;;;;;;;;;;5085865;28;20421;-77
2022/02/23 03:50:27;;;;;;;4.20;1.40;;;;;;;;;;5076902;28;20424;-77
2022/02/23 03:52:53;;;;;;;11.07;2.03;;;4.90;1.00;;;;;;5081675;28;20987;-78
2022/02/23 03:55:19;;;;;;;8.40;2.27;;;4.90;1.00;;;;;;5075448;28;20518;-77
2022/02/23 03:57:45;;;;;;;10.63;2.07;;;4.80;1.00;;;;;;5083941;28;20554;-77
2022/02/23 04:00:13;;;;;;;8.30;1.70;;;4.80;1.00;;;;;;5075944;28;20512;-77
2022/02/23 04:02:40;;;;;;;6.37;1.73;;;;;;;;;;5076831;28;20406;-76
2022/02/23 04:05:06;;;;;;;10.27;2.33;;;4.80;1.00;;;;;;5077275;28;20795;-76
2022/02/23 04:07:33;;;;;;;20.90;1.80;;;4.90;1.00;;;;;;5077560;28;20514;-76
2022/02/23 04:09:59;;;;;;;8.13;1.60;;;4.90;1.00;;;;;;5077908;28;20775;-76
2022/02/23 04:12:25;;;;;;;3.07;1.30;;;4.90;1.00;;;;;;5073243;28;20425;-76
2022/02/23 04:14:50;;;;;;;9.30;1.83;;;4.90;1.00;;;;;;5075412;28;20457;-76
2022/02/23 04:17:16;;;;;;;7.80;1.50;;;4.80;1.00;;;;;;5074868;28;20494;-76
2022/02/23 04:19:42;;;;;;;6.63;1.90;;;;;;;;;;5074249;28;20237;-75
2022/02/23 04:22:12;;;;;;;8.43;2.30;;;4.90;1.00;;;;;;5074917;28;20179;-74
2022/02/23 04:24:38;;;;;;;3.27;1.47;;;4.80;1.00;;;;;;5080607;28;20441;-74
2022/02/23 04:27:04;;;;;;;13.00;2.10;;;4.90;1.00;;;;;;5084319;28;20466;-74
2022/02/23 04:29:31;;;;;;;6.23;1.70;;;;;;;;;;5085231;28;20634;-74
2022/02/23 04:31:57;;;;;;;12.67;1.80;;;;;;;;;;5074682;28;20505;-74
2022/02/23 04:34:23;;;;;;;8.13;2.13;;;;;;;;;;5080422;28;20448;-74
2022/02/23 04:36:49;;;;;;;8.93;2.37;;;4.90;1.00;;;;;;5082044;28;20425;-74
2022/02/23 04:39:15;;;;;;;14.03;2.20;;;4.90;1.00;;;;;;5080357;28;20822;-74
2022/02/23 04:41:41;;;;;;;12.53;1.70;;;4.90;1.00;;;;;;5079457;28;20433;-74
2022/02/23 04:44:12;;;;;;;4.63;2.00;;;4.80;1.00;;;;;;5088367;28;20206;-74
2022/02/23 04:46:38;;;;;;;4.90;1.97;;;;;;;;;;5082747;28;20429;-74
2022/02/23 04:49:04;;;;;;;4.67;1.60;;;4.70;1.00;;;;;;5073667;28;20405;-75
2022/02/23 04:51:30;;;;;;;10.00;1.60;;;4.70;1.00;;;;;;5083292;28;20417;-75
2022/02/23 04:53:57;;;;;;;5.13;1.60;;;4.80;1.00;;;;;;5075333;28;20203;-75
2022/02/23 04:56:23;;;;;;;16.57;2.37;;;;;;;;;;5082914;28;20926;-75
2022/02/23 04:58:49;;;;;;;7.47;1.53;;;4.70;1.00;;;;;;5080331;28;20440;-75
2022/02/23 05:01:14;;;;;;;6.73;2.00;;;4.70;1.00;;;;;;5079437;28;20895;-75
2022/02/23 05:03:40;;;;;;;16.37;2.87;;;;;;;;;;5073777;28;20171;-74
2022/02/23 05:06:07;;;;;;;4.03;1.67;;;4.60;1.00;;;;;;5073770;28;20200;-74
2022/02/23 05:08:33;;;;;;;17.83;2.20;;;;;;;;;;5085403;28;20451;-74
2022/02/23 05:11:00;;;;;;;8.83;1.57;;;;;;;;;;5076141;28;20950;-74
2022/02/23 05:13:27;;;;;;;9.33;1.60;;;;;;;;;;5073090;28;20448;-74
2022/02/23 05:15:57;;;;;;;7.50;1.80;;;4.40;1.00;;;;;;5074425;28;20504;-74
2022/02/23 05:18:24;;;;;;;7.33;1.87;;;4.30;1.00;;;;;;5075880;28;20428;-74
2022/02/23 05:20:50;;;;;;;11.80;1.87;;;4.30;1.00;;;;;;5081656;28;20432;-74
2022/02/23 05:23:17;;;;;;;8.50;2.33;;;4.20;1.00;;;;;;5076456;28;20424;-74
2022/02/23 05:25:43;;;;;;;9.07;1.60;;;;;;;;;;5073044;28;20471;-74
2022/02/23 05:28:09;;;;;;;8.23;1.30;;;;;;;;;;5073971;28;20774;-74
2022/02/23 05:30:35;;;;;;;6.37;1.93;;;;;;;;;;5072702;28;20765;-74
2022/02/23 05:33:01;;;;;;;9.50;1.87;;;;;;;;;;5081405;28;20988;-74
2022/02/23 05:35:26;;;;;;;5.03;1.90;;;3.90;1.00;;;;;;5078286;28;20456;-74
2022/02/23 05:37:52;;;;;;;4.83;1.50;;;;;;;;;;5076961;28;20425;-74
2022/02/23 05:40:18;;;;;;;11.57;1.50;;;;;;;;;;5071716;28;20179;-74
2022/02/23 05:42:44;;;;;;;7.90;1.70;;;3.60;1.00;;;;;;5077280;28;20491;-74
2022/02/23 05:45:10;;;;;;;4.13;1.53;;;3.50;1.00;;;;;;5081482;28;20429;-74
2022/02/23 05:47:36;;;;;;;4.88;2.20;;;3.50;1.00;;;;;;5072943;28;20187;-75
2022/02/23 05:50:02;;;;;;;10.27;2.07;;;3.30;1.00;;;;;;5074641;28;20228;-75
2022/02/23 05:52:29;;;;;;;2.38;1.63;;;;;;;;;;5073081;28;20693;-75
2022/02/23 05:54:55;;;;;;;8.63;2.33;;;;;;;;;;5073643;28;20715;-75
2022/02/23 05:57:21;;;;;;;10.13;2.53;;;3.30;1.00;;;;;;5077411;28;20179;-75
2022/02/23 05:59:47;;;;;;;8.33;2.00;;;3.30;1.00;;;;;;5073419;28;20639;-75
2022/02/23 06:02:13;;;;;;;11.55;2.00;;;3.20;1.00;;;;;;5073120;28;20818;-74
2022/02/23 06:04:38;;;;;;;7.13;2.10;;;3.20;1.00;;;;;;5077764;28;20179;-75
2022/02/23 06:07:05;;;;;;;3.77;1.73;;;3.20;1.00;;;;;;5074474;28;20563;-71
2022/02/23 06:09:32;;;;;;;6.47;2.25;;;3.10;1.00;;;;;;5080147;28;20592;-75
2022/02/23 06:11:58;;;;;;;6.38;2.20;;;;;;;;;;5076341;28;20224;-75
2022/02/23 06:14:24;;;;;;;10.48;3.30;;;3.10;1.00;;;;;;5080443;28;20198;-76
2022/02/23 06:16:50;;;;;;;13.55;2.30;;;3.00;1.00;;;;;;5081665;28;20179;-76
2022/02/23 06:19:16;;;;;;;5.90;2.30;;;;;;;;;;5084288;28;20212;-76
2022/02/23 06:21:42;;;;;;;11.33;2.33;;;;;;;;;;5083177;28;20530;-76
2022/02/23 06:24:08;;;;;;;5.07;1.80;;;;;;;;;;5076415;28;20436;-75
2022/02/23 06:26:34;;;;;;;4.60;1.50;;;3.00;1.00;;;;;;5078793;28;20953;-76
2022/02/23 06:29:00;;;;;;;14.17;2.20;;;3.00;1.00;;;;;;5078734;28;20187;-76
2022/02/23 06:31:25;;;;;;;4.80;1.83;;;2.90;1.00;;;;;;5082962;28;20191;-76
2022/02/23 06:33:51;;;;;;;7.33;2.03;;;;;;;;;;5079914;28;20517;-75
2022/02/23 06:36:17;;;;;;;4.07;1.60;;;;;;;;;;5072506;28;20189;-76
2022/02/23 06:38:44;;;;;;;3.45;1.95;;;3.00;1.00;;;;;;5085918;28;20424;-76
2022/02/23 06:41:19;;;;;;;4.30;1.80;;;2.90;1.00;;;;;;5085075;28;20183;-76
2022/02/23 06:43:46;;;;;;;9.98;2.50;;;3.00;1.00;;;;;;5077158;28;20177;-76
2022/02/23 06:46:13;;;;;;;12.30;2.67;;;2.90;1.00;;;;;;5096586;28;20611;-76
2022/02/23 06:48:40;;;;;;;7.78;2.15;;;2.90;1.00;;;;;;5079304;28;20185;-74
2022/02/23 06:51:06;;;;;;;7.70;2.20;;;;;;;;;;5077223;28;20206;-74
2022/02/23 06:53:32;;;;;;;4.93;2.53;;;2.90;1.00;;;;;;5080072;28;20599;-74
2022/02/23 06:55:58;;;;;;;8.20;2.15;;;3.00;1.00;;;;;;5081656;28;20416;-74
2022/02/23 06:58:24;;;;;;;6.00;2.00;;;3.00;1.00;;;;;;5082540;28;20715;-75
2022/02/23 07:00:50;;;;;;;12.13;2.40;;;3.00;1.00;;;;;;5081149;28;20178;-74
2022/02/23 07:03:16;;;;;;;6.30;1.90;;;3.10;1.00;;;;;;5075858;28;20178;-74
2022/02/23 07:05:42;;;;;;;14.40;3.13;;;3.10;1.00;;;;;;5080492;28;20417;-74
2022/02/23 07:08:08;;;;;;;6.40;2.50;;;3.10;1.00;;;;;;5074362;28;20971;-74
2022/02/23 07:10:36;;;;;;;5.60;1.77;;;3.10;1.00;;;;;;5079169;28;20490;-74
2022/02/23 07:13:05;;;;;;;8.10;2.72;;;3.20;1.00;;;;;;5082987;28;20557;-74
2022/02/23 07:15:31;;;;;;;13.30;2.78;;;3.30;1.00;;;;;;5075600;28;20221;-74
2022/02/23 07:17:57;;;;;;;9.02;2.30;;;3.30;1.00;;;;;;5079356;28;20182;-74
2022/02/23 07:20:24;;;;;;;13.82;2.67;;;3.40;1.00;;;;;;5078670;28;20175;-74
2022/02/23 07:22:51;;;;;;;13.68;2.67;;;3.40;1.00;;;;;;5078901;28;20615;-74
2022/02/23 07:25:17;;;;;;;10.00;2.58;;;3.40;1.00;;;;;;5093453;28;20190;-74
2022/02/23 07:27:44;;;;;;;7.10;2.40;;;;;;;;;;5086403;28;20179;-74
2022/02/23 07:30:16;;;;;;;5.03;1.95;;;3.50;1.00;;;;;;5077451;28;20669;-74
2022/02/23 07:32:44;;;;;;;2.92;2.13;;;3.60;1.00;;;;;;5075019;28;20611;-74
2022/02/23 07:35:11;;;;;;;8.68;2.08;;;;;;;;;;5075495;28;20278;-74
2022/02/23 07:37:38;;;;;;;7.88;2.92;;;3.70;1.00;;;;;;5075540;28;20167;-74
2022/02/23 07:40:10;;;;;;;15.57;2.40;;;3.80;1.00;;;;;;5079837;28;20227;-74
2022/02/23 07:42:35;;;;;;;11.55;2.05;;;3.80;1.00;;;;;;5088201;28;20576;-74
2022/02/23 07:45:01;;;;;;;6.57;1.90;;;3.80;1.00;;;;;;5078996;28;20206;-74
2022/02/23 07:47:27;;;;;;;5.30;2.30;;;3.90;1.00;;;;;;5075186;28;20250;-75
2022/02/23 07:49:53;;;;;;;15.47;2.50;;;;;;;;;;5075085;28;20930;-74
2022/02/23 07:52:20;;;;;;;5.33;2.37;;;4.00;1.00;;;;;;5079374;28;20641;-75
2022/02/23 07:54:46;;;;;;;13.50;2.87;;;4.20;1.00;;;;;;5078567;28;20457;-73
2022/02/23 07:57:12;;;;;;;8.57;1.97;;;4.30;1.00;;;;;;5081670;28;20425;-73
2022/02/23 07:59:38;;;;;;;6.68;2.20;;;4.30;1.00;;;;;;5074184;28;20417;-74
2022/02/23 08:02:04;;;;;;;3.67;2.03;;;4.50;1.00;;;;;;5080471;28;20189;-74
2022/02/23 08:04:30;;;;;;;9.20;2.40;;;5.40;1.00;;;;;;5074564;28;20220;-74
2022/02/23 08:06:56;;;;;;;5.87;2.13;;;;;;;;;;5081433;28;20499;-74
2022/02/23 08:09:22;;;;;;;7.73;1.53;;;;;;;;;;5074297;28;20198;-74
2022/02/23 08:11:48;;;;;;;12.13;2.00;;;;;;;;;;5078761;28;20417;-74
2022/02/23 08:14:15;;;;;;;9.50;2.67;;;5.00;1.00;;;;;;5072817;28;20510;-74
2022/02/23 08:19:36;;;;;;;6.77;1.77;;;5.20;1.00;;;;;;5074590;28;20458;-75
2022/02/23 08:22:12;;;;;;;26.53;3.27;;;5.30;1.00;;;;;;5078787;28;20417;-75
2022/02/23 08:24:40;;;;;;;14.43;2.60;;;5.40;1.00;;;;;;5089758;28;20439;-74
2022/02/23 08:27:08;;;;;;;6.70;1.93;;;5.60;1.00;;;;;;5080851;28;20420;-74
2022/02/23 08:29:34;;;;;;;14.67;2.03;;;5.70;1.00;;;;;;5094119;28;20966;-74
2022/02/23 08:32:01;;;;;;;13.27;2.10;;;5.80;1.00;;;;;;5094260;28;20412;-75
2022/02/23 08:34:27;;;;;;;16.47;2.33;;;6.00;1.00;;;;;;5082134;28;20453;-74
2022/02/23 08:36:53;;;;;;;15.27;2.23;;;6.10;1.00;;;;;;5075109;28;20808;-74
2022/02/23 08:39:20;;;;;;;10.53;2.50;;;6.30;1.00;;;;;;5078050;28;20425;-74
2022/02/23 08:41:46;;;;;;;6.40;2.03;;;6.40;1.00;;;;;;5073910;28;20449;-74
2022/02/23 08:44:12;;;;;;;10.40;2.30;;;;;;;;;;5073740;28;20962;-74
2022/02/23 08:46:40;;;;;;;13.40;2.30;;;6.60;1.00;;;;;;5075712;28;20508;-74
2022/02/23 08:49:10;;;;;;;4.40;2.10;;;6.80;1.00;;;;;;5082414;28;20974;-74
2022/02/23 08:51:37;;;;;;;7.20;2.30;;;6.90;1.00;;;;;;5074228;28;20446;-74
2022/02/23 08:54:05;;;;;;;7.90;1.97;;;6.90;1.00;;;;;;5080282;28;20472;-74
2022/02/23 08:56:31;;;;;;;4.93;2.07;;;7.10;1.00;;;;;;5084823;28;20433;-74
2022/02/23 08:58:57;;;;;;;10.07;2.37;;;7.40;1.00;;;;;;5078522;28;20427;-74
2022/02/23 09:01:23;;;;;;;4.37;1.77;;;7.20;1.00;;;;;;5079357;28;20417;-74
2022/02/23 09:03:50;;;;;;;9.93;1.90;;;7.40;1.00;;;;;;5078956;28;20220;-74
2022/02/23 09:06:15;;;;;;;11.33;2.20;;;7.50;1.00;;;;;;5076806;28;20178;-74
2022/02/23 09:08:41;;;;;;;10.80;1.70;;;7.50;1.00;;;;;;5091266;28;20424;-74
2022/02/23 09:11:06;;;;;;;8.83;1.67;;;8.40;1.00;;;;;;5077696;28;20272;-74
2022/02/23 09:13:32;;;;;;;8.83;1.60;;;7.80;1.00;;;;;;5076226;28;20254;-74
2022/02/23 09:15:58;;;;;;;8.27;1.70;;;;;;;;;;5087129;28;20170;-74
2022/02/23 09:18:25;;;;;;;9.43;2.23;;;7.90;1.00;;;;;;5088153;28;20515;-74
2022/02/23 09:20:54;;;;;;;7.80;2.40;;;9.00;1.00;;;;;;5079680;28;20408;-74
2022/02/23 09:23:21;;;;;;;10.87;2.27;;;8.10;1.00;;;;;;5085015;28;20507;-74
2022/02/23 09:25:46;;;;;;;5.20;1.20;;;9.10;1.00;;;;;;5071506;28;20975;-74
2022/02/23 09:28:12;;;;;;;8.63;1.63;;;8.20;1.00;;;;;;5078646;28;20458;-74
2022/02/23 09:30:38;;;;;;;10.67;2.00;;;8.30;1.00;;;;;;5080023;28;20684;-75
2022/02/23 09:33:03;;;;;;;6.13;1.80;;;8.70;1.00;;;;;;5086060;28;20201;-75
2022/02/23 09:35:29;;;;;;;9.00;2.20;;;8.30;1.00;;;;;;5078814;28;20229;-74
2022/02/23 09:37:57;;;;;;;8.13;1.90;;;9.50;1.00;;;;;;5071514;28;20239;-74
2022/02/23 09:40:24;;;;;;;8.23;1.90;;;8.60;1.00;;;;;;5072723;28;20175;-74
2022/02/23 09:42:50;;;;;;;8.03;2.07;;;9.20;1.00;;;;;;5073051;28;20414;-74
2022/02/23 09:45:17;;;;;;;7.53;1.90;;;8.70;1.00;;;;;;5072954;28;20421;-75
2022/02/23 09:47:43;;;;;;;15.03;2.40;;;;;;;;;;5072882;28;20417;-75
2022/02/23 09:50:11;;;;;;;8.33;2.67;;;8.80;1.00;;;;;;5071536;28;20755;-74
2022/02/23 09:52:37;;;;;;;10.93;2.20;;;8.90;1.00;;;;;;5073167;28;20429;-74
2022/02/23 09:55:05;;;;;;;5.90;1.87;;;9.00;1.00;;;;;;5083679;28;20463;-75
2022/02/23 09:57:31;;;;;;;10.07;2.20;;;9.00;1.00;;;;;;5069629;28;20479;-74
2022/02/23 09:59:58;;;;;;;10.77;1.90;;;9.00;1.00;;;;;;5072900;28;20496;-74
2022/02/23 10:02:24;;;;;;;5.60;1.60;;;9.10;1.00;;;;;;5079049;28;20418;-74
2022/02/23 10:04:54;;;;;;;8.90;2.13;;;9.20;1.00;;;;;;5077984;28;20538;-75
2022/02/23 10:07:31;;;;;;;8.10;2.10;;;9.10;1.00;;;;;;5084045;28;20655;-75
2022/02/23 10:10:28;;;;;;;3.30;1.40;;;9.20;1.00;;;;;;5079797;28;20420;-78
2022/02/23 10:12:53;;;;;;;4.67;1.70;;;9.20;1.00;;;;;;5086196;28;20413;-74
2022/02/23 10:15:20;;;;;;;16.03;2.40;;;9.20;1.00;;;;;;5079494;28;20467;-74
2022/02/23 10:17:50;;;;;;;9.03;1.70;;;9.30;1.00;;;;;;5076930;28;20241;-74
2022/02/23 10:20:26;;;;;;;10.27;1.43;;;9.40;1.00;;;;;;5091744;28;20413;-74
2022/02/23 10:23:00;;;;;;;3.90;1.73;;;9.40;1.00;;;;;;5079598;28;20399;-73
2022/02/23 10:25:35;;;;;;;7.97;1.50;;;9.50;1.00;;;;;;5094652;28;20428;-74
2022/02/23 10:28:15;;;;;;;5.40;1.40;;;9.70;1.00;;;;;;5081907;28;20416;-73
2022/02/23 10:31:02;;;;;;;4.40;1.30;;;9.80;1.00;;;;;;5084760;28;20421;-73
2022/02/23 10:33:32;;;;;;;11.70;1.33;;;9.90;1.00;;;;;;5090826;28;20767;-74
2022/02/23 10:36:11;;;;;;;8.70;2.20;;;10.00;1.00;;;;;;5081047;28;20478;-75
2022/02/23 10:38:42;;;;;;;12.00;1.90;;;10.00;1.00;;;;;;5088322;28;20417;-74
2022/02/23 10:41:26;;;;;;;9.20;2.17;;;10.10;1.00;;;;;;5087974;28;20496;-75
2022/02/23 10:43:54;;;;;;;4.60;1.50;;;10.10;1.00;;;;;;5087354;28;20445;-74
2022/02/23 10:46:21;;;;;;;7.60;1.10;;;10.10;1.00;;;;;;5089303;28;20512;-74
2022/02/23 10:48:59;;;;;;;11.53;1.90;;;9.90;1.00;;;;;;5077060;28;20406;-74
2022/02/23 10:51:30;;;;;;;7.87;1.47;;;9.90;1.00;;;;;;5089228;28;20420;-73
2022/02/23 10:54:04;;;;;;;7.40;1.73;;;9.90;1.00;;;;;;5083809;28;20464;-73
2022/02/23 10:56:33;;;;;;;5.37;1.63;;;9.90;1.00;;;;;;5089710;28;20485;-73
2022/02/23 10:59:15;;;;;;;6.23;1.87;;;10.00;1.00;;;;;;5076614;28;20399;-73
2022/02/23 11:01:45;;;;;;;9.63;1.87;;;10.00;1.00;;;;;;5085488;28;20487;-74
2022/02/23 11:04:12;;;;;;;6.67;1.70;;;10.00;1.00;;;;;;5091766;28;20421;-73
2022/02/23 11:06:43;;;;;;;4.17;1.53;;;10.00;1.00;;;;;;5085876;28;20420;-74
2022/02/23 11:09:36;;;;;;;10.10;1.30;;;10.00;1.00;;;;;;5092661;28;20431;-73
2022/02/23 11:12:03;;;;;;;5.53;1.10;;;10.10;1.00;;;;;;5081595;28;20417;-74
2022/02/23 11:14:31;;;;;;;8.57;1.30;;;10.20;1.00;;;;;;5084964;28;20453;-74
2022/02/23 11:17:00;;;;;;;4.60;1.70;;;10.40;1.00;;;;;;5074908;28;20392;-74
2022/02/23 11:19:26;;;;;;;11.93;1.87;;;10.50;1.00;;;;;;5075346;28;20825;-74
2022/02/23 11:21:54;;;;;;;5.50;1.13;;;10.60;1.00;;;;;;5075425;28;20778;-74
2022/02/23 11:24:20;;;;;;;5.70;1.87;;;;;;;;;;5076897;28;20445;-74
2022/02/23 11:26:46;;;;;;;3.47;1.37;;;;;;;;;;5075061;28;20441;-74
2022/02/23 11:29:33;;;;;;;11.60;1.60;;;10.90;1.00;;;;;;5074822;28;20405;-74
2022/02/23 11:32:03;;;;;;;4.40;1.33;;;10.90;1.00;;;;;;5078483;28;20423;-74
2022/02/23 11:34:29;;;;;;;6.63;1.40;;;;;;;;;;5085290;28;20510;-74
2022/02/23 11:36:55;;;;;;;3.70;1.10;;;11.00;1.00;;;;;;5075305;28;20429;-76
2022/02/23 11:39:35;;;;;;;8.33;1.60;;;11.10;1.00;;;;;;5075098;28;20416;-76
2022/02/23 11:42:05;;;;;;;13.00;1.20;;;11.20;1.00;;;;;;5085919;28;20412;-76
2022/02/23 11:44:35;;;;;;;9.07;1.60;;;11.20;1.00;;;;;;5088914;28;20416;-76
2022/02/23 11:47:11;;;;;;;13.73;1.70;;;11.20;1.00;;;;;;5079792;28;20396;-76
2022/02/23 11:49:38;;;;;;;4.77;1.40;;;11.20;1.00;;;;;;5086047;28;20515;-76
2022/02/23 11:52:12;;;;;;;13.10;1.97;;;11.30;1.00;;;;;;5081029;28;20413;-75
2022/02/23 11:55:17;;;;;;;3.80;1.20;;;11.30;1.00;;;;;;5074430;28;20525;-75
2022/02/23 11:57:59;;;;;;;3.53;1.33;;;11.10;1.00;;;;;;5074632;28;20424;-75
2022/02/23 12:00:30;;;;;;;4.00;1.17;;;11.20;1.00;;;;;;5085477;28;20823;-75
2022/02/23 12:03:22;;;;;;;4.80;1.30;;;11.10;1.00;;;;;;5077380;28;20781;-73
2022/02/23 12:06:09;;;;;;;4.17;0.90;;;11.30;1.00;;;;;;5074765;28;20896;-73
2022/02/23 12:08:47;;;;;;;16.23;1.90;;;11.30;1.00;;;;;;5085988;28;20427;-75
2022/02/23 12:11:15;;;;;;;6.10;1.20;;;11.30;1.00;;;;;;5075451;28;20428;-75
2022/02/23 12:17:46;;;;;;;7.57;0.80;;;11.30;1.00;;;;;;5088629;28;20399;-75
2022/02/23 12:20:42;;;;;;;5.03;1.20;;;11.30;1.00;;;;;;5088700;28;20412;-76
2022/02/23 12:23:17;;;;;;;6.07;1.20;;;11.40;1.00;;;;;;5076484;28;20448;-77
2022/02/23 12:26:06;;;;;;;3.53;1.10;;;11.40;1.00;;;;;;5084111;28;20436;-76
2022/02/23 12:28:38;;;;;;;2.90;1.20;;;11.50;1.00;;;;;;5079076;28;20574;-76
2022/02/23 12:31:14;;;;;;;4.10;1.03;;;11.60;1.00;;;;;;5083514;28;20515;-76
2022/02/23 12:33:54;;;;;;;3.67;1.17;;;11.40;1.00;;;;;;5087113;28;20456;-77
2022/02/23 12:36:43;;;;;;;4.20;1.10;;;11.50;1.00;;;;;;5089173;28;20796;-74
2022/02/23 12:39:16;;;;;;;3.30;1.17;;;11.50;1.00;;;;;;5085809;28;20404;-74
2022/02/23 12:41:45;;;;;;;4.63;1.30;;;11.60;1.00;;;;;;5086863;28;20416;-75
2022/02/23 12:44:37;;;;;;;8.87;1.43;;;11.70;1.00;;;;;;5076875;28;20392;-75
2022/02/23 12:47:09;;;;;;;9.60;1.83;;;11.80;1.00;;;;;;5071416;28;20429;-74
2022/02/23 12:49:36;;;;;;;2.47;0.93;;;11.80;1.00;;;;;;5085009;28;20424;-74
2022/02/23 12:52:07;;;;;;;7.83;1.37;;;11.80;1.00;;;;;;5083989;28;20459;-74
2022/02/23 12:54:37;;;;;;;2.53;1.03;;;11.90;1.00;;;;;;5077961;28;20443;-75
2022/02/23 12:57:07;;;;;;;9.63;1.17;;;12.00;1.00;;;;;;5085129;28;20449;-79
2022/02/23 12:59:39;;;;;;;6.13;1.20;;;12.10;1.00;;;;;;5082096;28;20478;-77
2022/02/23 13:02:13;;;;;;;6.47;1.30;;;12.00;1.00;;;;;;5083503;28;20515;-79
2022/02/23 13:04:44;;;;;;;5.00;0.90;;;12.00;1.00;;;;;;5076757;28;20469;-77
2022/02/23 13:10:54;;;;;;;4.53;0.70;;;12.10;1.00;;;;;;5075382;28;20394;-85
2022/02/23 13:13:44;;;;;;;3.50;0.97;;;12.20;1.00;;;;;;5077277;28;20528;-81
2022/02/23 13:20:14;;;;;;;8.50;1.17;;;12.30;1.00;;;;;;5073766;28;20396;-82
2022/02/23 13:23:13;;;;;;;3.40;0.80;;;12.40;1.00;;;;;;5081683;28;20428;-81
2022/02/23 13:25:39;;;;;;;3.07;1.10;;;12.40;1.00;;;;;;5074148;28;20411;-82
2022/02/23 13:28:13;;;;;;;2.30;0.80;;;12.40;1.00;;;;;;5087183;28;20420;-81
2022/02/23 13:30:42;;;;;;;6.47;1.03;;;12.40;1.00;;;;;;5072901;28;20765;-83
2022/02/23 13:33:22;;;;;;;2.97;0.90;;;12.30;1.00;;;;;;5090378;28;20746;-82
2022/02/23 13:36:42;;;;;;;1.60;0.80;;;12.30;1.00;;;;;;5092767;28;20427;-82
2022/02/23 13:39:41;;;;;;;4.70;1.43;;;12.40;1.00;;;;;;5084932;28;20459;-75